sensor_id;sensor_type;location;lat;lon;timestamp;temperature;humidity
13433;DHT22;6789;47.678;9.158;2023-06-22T00:02:26;21.40;99.90
13433;DHT22;6789;47.678;9.158;2023-06-22T00:07:18;21.40;99.90
13433;DHT22;6789;47.678;9.158;2023-06-22T00:12:10;21.30;99.90
13433;DHT22;6789;47.678;9.158;2023-06-22T00:17:02;21.30;99.90
13433;DHT22;6789;47.678;9.158;2023-06-22T00:21:54;21.30;99.90
13433;DHT22;6789;47.678;9.158;2023-06-22T00:26:48;21.20;99.90
13433;DHT22;6789;47.678;9.158;2023-06-22T00:31:54;21.10;99.90
13433;DHT22;6789;47.678;9.158;2023-06-22T00:36:46;21.10;99.90
13433;DHT22;6789;47.678;9.158;2023-06-22T00:41:37;20.90;99.90
13433;DHT22;6789;47.678;9.158;2023-06-22T00:46:29;20.90;99.90
13433;DHT22;6789;47.678;9.158;2023-06-22T00:51:21;20.80;99.90
13433;DHT22;6789;47.678;9.158;2023-06-22T00:56:15;20.70;99.90
13433;DHT22;6789;47.678;9.158;2023-06-22T01:01:10;20.60;99.90
13433;DHT22;6789;47.678;9.158;2023-06-22T01:06:08;20.60;99.90
13433;DHT22;6789;47.678;9.158;2023-06-22T01:11:22;20.60;99.90
13433;DHT22;6789;47.678;9.158;2023-06-22T01:16:29;20.50;99.90
13433;DHT22;6789;47.678;9.158;2023-06-22T01:21:24;20.50;99.90
13433;DHT22;6789;47.678;9.158;2023-06-22T01:26:35;20.60;99.90
13433;DHT22;6789;47.678;9.158;2023-06-22T01:31:49;20.50;99.90
13433;DHT22;6789;47.678;9.158;2023-06-22T01:36:43;20.60;99.90
13433;DHT22;6789;47.678;9.158;2023-06-22T01:41:37;20.50;99.90
13433;DHT22;6789;47.678;9.158;2023-06-22T01:46:29;20.40;99.90
13433;DHT22;6789;47.678;9.158;2023-06-22T01:51:22;20.50;99.90
13433;DHT22;6789;47.678;9.158;2023-06-22T01:56:17;20.40;99.90
13433;DHT22;6789;47.678;9.158;2023-06-22T02:01:11;20.30;99.90
13433;DHT22;6789;47.678;9.158;2023-06-22T02:06:10;20.20;99.90
13433;DHT22;6789;47.678;9.158;2023-06-22T02:11:09;20.20;99.90
13433;DHT22;6789;47.678;9.158;2023-06-22T02:16:03;20.20;99.90
13433;DHT22;6789;47.678;9.158;2023-06-22T02:20:55;20.10;99.90
13433;DHT22;6789;47.678;9.158;2023-06-22T02:25:47;20.20;99.90
13433;DHT22;6789;47.678;9.158;2023-06-22T02:30:39;20.20;99.90
13433;DHT22;6789;47.678;9.158;2023-06-22T02:35:31;20.10;99.90
13433;DHT22;6789;47.678;9.158;2023-06-22T02:40:23;20.00;99.90
13433;DHT22;6789;47.678;9.158;2023-06-22T02:45:15;20.00;99.90
13433;DHT22;6789;47.678;9.158;2023-06-22T02:50:07;19.90;99.90
13433;DHT22;6789;47.678;9.158;2023-06-22T02:54:59;20.00;99.90
13433;DHT22;6789;47.678;9.158;2023-06-22T02:59:51;19.80;99.90
13433;DHT22;6789;47.678;9.158;2023-06-22T03:04:43;19.70;99.90
13433;DHT22;6789;47.678;9.158;2023-06-22T03:09:35;19.80;99.90
13433;DHT22;6789;47.678;9.158;2023-06-22T03:14:27;19.70;99.90
13433;DHT22;6789;47.678;9.158;2023-06-22T03:19:19;19.70;99.90
13433;DHT22;6789;47.678;9.158;2023-06-22T03:24:13;19.50;99.90
13433;DHT22;6789;47.678;9.158;2023-06-22T03:29:04;19.60;99.90
13433;DHT22;6789;47.678;9.158;2023-06-22T03:33:56;19.60;99.90
13433;DHT22;6789;47.678;9.158;2023-06-22T03:38:49;19.60;99.90
13433;DHT22;6789;47.678;9.158;2023-06-22T03:43:43;19.70;99.90
13433;DHT22;6789;47.678;9.158;2023-06-22T03:48:35;19.60;99.90
13433;DHT22;6789;47.678;9.158;2023-06-22T03:53:26;19.70;99.90
13433;DHT22;6789;47.678;9.158;2023-06-22T03:58:19;19.80;99.90
13433;DHT22;6789;47.678;9.158;2023-06-22T04:03:26;20.00;99.90
13433;DHT22;6789;47.678;9.158;2023-06-22T04:08:18;20.30;99.90
13433;DHT22;6789;47.678;9.158;2023-06-22T04:13:09;20.60;99.90
13433;DHT22;6789;47.678;9.158;2023-06-22T04:18:01;20.90;99.90
13433;DHT22;6789;47.678;9.158;2023-06-22T04:22:54;21.30;99.90
13433;DHT22;6789;47.678;9.158;2023-06-22T04:27:46;21.50;99.90
13433;DHT22;6789;47.678;9.158;2023-06-22T04:32:39;21.90;99.90
13433;DHT22;6789;47.678;9.158;2023-06-22T04:37:33;21.90;99.90
13433;DHT22;6789;47.678;9.158;2023-06-22T04:42:28;22.70;99.90
13433;DHT22;6789;47.678;9.158;2023-06-22T04:47:34;22.70;99.90
13433;DHT22;6789;47.678;9.158;2023-06-22T04:52:40;23.70;99.90
13433;DHT22;6789;47.678;9.158;2023-06-22T04:57:32;23.70;99.90
13433;DHT22;6789;47.678;9.158;2023-06-22T05:02:24;24.30;99.90
13433;DHT22;6789;47.678;9.158;2023-06-22T05:07:37;24.40;99.90
13433;DHT22;6789;47.678;9.158;2023-06-22T05:12:42;25.30;99.90
13433;DHT22;6789;47.678;9.158;2023-06-22T05:17:36;26.10;99.90
13433;DHT22;6789;47.678;9.158;2023-06-22T05:22:28;27.20;99.90
13433;DHT22;6789;47.678;9.158;2023-06-22T05:27:20;27.90;99.90
13433;DHT22;6789;47.678;9.158;2023-06-22T05:32:25;28.80;99.90
13433;DHT22;6789;47.678;9.158;2023-06-22T05:37:18;29.10;99.90
13433;DHT22;6789;47.678;9.158;2023-06-22T05:42:28;28.90;99.90
13433;DHT22;6789;47.678;9.158;2023-06-22T05:47:36;27.90;99.90
13433;DHT22;6789;47.678;9.158;2023-06-22T05:52:32;28.00;99.90
13433;DHT22;6789;47.678;9.158;2023-06-22T05:58:00;28.50;99.90
13433;DHT22;6789;47.678;9.158;2023-06-22T06:03:24;28.40;99.90
13433;DHT22;6789;47.678;9.158;2023-06-22T06:08:34;28.40;99.90
13433;DHT22;6789;47.678;9.158;2023-06-22T06:13:26;28.30;99.90
13433;DHT22;6789;47.678;9.158;2023-06-22T06:18:17;28.50;99.90
13433;DHT22;6789;47.678;9.158;2023-06-22T06:23:15;27.90;99.90
13433;DHT22;6789;47.678;9.158;2023-06-22T06:28:25;27.00;99.90
13433;DHT22;6789;47.678;9.158;2023-06-22T06:33:31;26.70;99.90
13433;DHT22;6789;47.678;9.158;2023-06-22T06:38:37;26.90;99.90
13433;DHT22;6789;47.678;9.158;2023-06-22T06:43:44;27.00;99.90
13433;DHT22;6789;47.678;9.158;2023-06-22T06:48:36;27.30;99.90
13433;DHT22;6789;47.678;9.158;2023-06-22T06:53:42;27.60;99.90
13433;DHT22;6789;47.678;9.158;2023-06-22T06:58:51;27.30;99.90
13433;DHT22;6789;47.678;9.158;2023-06-22T07:03:57;27.60;99.90
13433;DHT22;6789;47.678;9.158;2023-06-22T07:09:03;27.30;99.90
13433;DHT22;6789;47.678;9.158;2023-06-22T07:14:22;26.90;99.90
13433;DHT22;6789;47.678;9.158;2023-06-22T07:19:32;26.50;99.90
13433;DHT22;6789;47.678;9.158;2023-06-22T07:24:49;26.70;99.90
13433;DHT22;6789;47.678;9.158;2023-06-22T07:30:25;26.80;99.90
13433;DHT22;6789;47.678;9.158;2023-06-22T07:35:31;26.70;99.90
13433;DHT22;6789;47.678;9.158;2023-06-22T07:41:05;26.90;99.90
13433;DHT22;6789;47.678;9.158;2023-06-22T07:46:19;27.10;99.90
13433;DHT22;6789;47.678;9.158;2023-06-22T07:51:26;27.30;99.90
13433;DHT22;6789;47.678;9.158;2023-06-22T07:56:35;27.40;99.90
13433;DHT22;6789;47.678;9.158;2023-06-22T08:01:59;28.00;99.90
13433;DHT22;6789;47.678;9.158;2023-06-22T08:07:35;28.50;99.90
13433;DHT22;6789;47.678;9.158;2023-06-22T08:12:53;28.70;99.90
13433;DHT22;6789;47.678;9.158;2023-06-22T08:18:09;28.50;99.90
13433;DHT22;6789;47.678;9.158;2023-06-22T08:23:34;28.00;99.90
13433;DHT22;6789;47.678;9.158;2023-06-22T08:28:52;27.50;99.90
13433;DHT22;6789;47.678;9.158;2023-06-22T08:34:46;27.20;99.90
13433;DHT22;6789;47.678;9.158;2023-06-22T08:40:43;26.80;99.90
13433;DHT22;6789;47.678;9.158;2023-06-22T08:46:37;26.50;99.90
13433;DHT22;6789;47.678;9.158;2023-06-22T08:52:45;26.50;99.90
13433;DHT22;6789;47.678;9.158;2023-06-22T08:58:01;26.70;99.90
13433;DHT22;6789;47.678;9.158;2023-06-22T09:04:16;26.80;99.90
13433;DHT22;6789;47.678;9.158;2023-06-22T09:09:42;26.80;99.90
13433;DHT22;6789;47.678;9.158;2023-06-22T09:15:16;27.20;99.90
13433;DHT22;6789;47.678;9.158;2023-06-22T09:20:33;27.80;99.90
13433;DHT22;6789;47.678;9.158;2023-06-22T09:25:43;28.10;99.90
13433;DHT22;6789;47.678;9.158;2023-06-22T09:31:13;28.30;99.90
13433;DHT22;6789;47.678;9.158;2023-06-22T09:36:23;28.30;99.90
13433;DHT22;6789;47.678;9.158;2023-06-22T09:41:42;28.00;99.90
13433;DHT22;6789;47.678;9.158;2023-06-22T09:47:04;28.10;99.90
13433;DHT22;6789;47.678;9.158;2023-06-22T09:52:20;28.10;99.90
13433;DHT22;6789;47.678;9.158;2023-06-22T09:57:48;29.00;99.90
13433;DHT22;6789;47.678;9.158;2023-06-22T10:03:06;29.50;99.90
13433;DHT22;6789;47.678;9.158;2023-06-22T10:08:33;29.70;99.90
13433;DHT22;6789;47.678;9.158;2023-06-22T10:13:45;30.40;99.90
13433;DHT22;6789;47.678;9.158;2023-06-22T10:18:56;30.60;99.90
13433;DHT22;6789;47.678;9.158;2023-06-22T10:24:01;30.90;99.90
13433;DHT22;6789;47.678;9.158;2023-06-22T10:30:14;30.60;99.90
13433;DHT22;6789;47.678;9.158;2023-06-22T10:36:11;29.70;99.90
13433;DHT22;6789;47.678;9.158;2023-06-22T10:42:19;29.30;99.90
13433;DHT22;6789;47.678;9.158;2023-06-22T10:47:46;29.20;99.90
13433;DHT22;6789;47.678;9.158;2023-06-22T10:52:59;28.90;99.90
13433;DHT22;6789;47.678;9.158;2023-06-22T10:58:38;28.80;99.90
13433;DHT22;6789;47.678;9.158;2023-06-22T11:04:05;29.60;99.90
13433;DHT22;6789;47.678;9.158;2023-06-22T11:15:36;29.80;99.90
13433;DHT22;6789;47.678;9.158;2023-06-22T11:21:10;30.00;99.90
13433;DHT22;6789;47.678;9.158;2023-06-22T11:26:22;29.80;99.90
13433;DHT22;6789;47.678;9.158;2023-06-22T11:32:18;30.10;99.90
13433;DHT22;6789;47.678;9.158;2023-06-22T11:37:25;30.20;99.90
13433;DHT22;6789;47.678;9.158;2023-06-22T11:42:36;29.90;99.90
13433;DHT22;6789;47.678;9.158;2023-06-22T11:47:51;29.80;99.90
13433;DHT22;6789;47.678;9.158;2023-06-22T11:53:07;30.20;99.90
13433;DHT22;6789;47.678;9.158;2023-06-22T11:58:13;30.40;99.90
13433;DHT22;6789;47.678;9.158;2023-06-22T12:03:23;31.00;99.90
13433;DHT22;6789;47.678;9.158;2023-06-22T12:08:49;31.40;99.90
13433;DHT22;6789;47.678;9.158;2023-06-22T12:14:25;31.90;99.90
13433;DHT22;6789;47.678;9.158;2023-06-22T12:20:03;31.80;99.90
13433;DHT22;6789;47.678;9.158;2023-06-22T12:25:41;32.00;99.90
13433;DHT22;6789;47.678;9.158;2023-06-22T12:30:59;32.00;99.90
13433;DHT22;6789;47.678;9.158;2023-06-22T12:36:32;31.70;99.90
13433;DHT22;6789;47.678;9.158;2023-06-22T12:41:48;31.50;99.90
13433;DHT22;6789;47.678;9.158;2023-06-22T12:54:05;31.40;99.90
13433;DHT22;6789;47.678;9.158;2023-06-22T12:59:32;31.60;99.90
13433;DHT22;6789;47.678;9.158;2023-06-22T13:05:03;32.10;99.90
13433;DHT22;6789;47.678;9.158;2023-06-22T13:10:24;32.70;99.90
13433;DHT22;6789;47.678;9.158;2023-06-22T13:15:50;32.50;99.90
13433;DHT22;6789;47.678;9.158;2023-06-22T13:21:07;31.80;99.90
13433;DHT22;6789;47.678;9.158;2023-06-22T13:26:14;32.00;99.90
13433;DHT22;6789;47.678;9.158;2023-06-22T13:38:06;32.50;99.90
13433;DHT22;6789;47.678;9.158;2023-06-22T14:18:21;32.00;99.90
13433;DHT22;6789;47.678;9.158;2023-06-22T14:23:33;32.00;99.90
13433;DHT22;6789;47.678;9.158;2023-06-22T14:28:43;32.40;99.90
13433;DHT22;6789;47.678;9.158;2023-06-22T14:33:55;32.30;99.90
13433;DHT22;6789;47.678;9.158;2023-06-22T14:39:04;32.00;99.90
13433;DHT22;6789;47.678;9.158;2023-06-22T14:44:49;31.70;99.90
13433;DHT22;6789;47.678;9.158;2023-06-22T14:49:41;31.50;99.90
13433;DHT22;6789;47.678;9.158;2023-06-22T15:01:47;31.30;99.90
13433;DHT22;6789;47.678;9.158;2023-06-22T15:07:00;31.10;99.90
13433;DHT22;6789;47.678;9.158;2023-06-22T15:12:11;31.40;99.90
13433;DHT22;6789;47.678;9.158;2023-06-22T15:22:27;31.90;99.90
13433;DHT22;6789;47.678;9.158;2023-06-22T15:27:44;32.20;99.90
13433;DHT22;6789;47.678;9.158;2023-06-22T15:33:21;31.50;99.90
13433;DHT22;6789;47.678;9.158;2023-06-22T15:38:18;31.30;99.90
13433;DHT22;6789;47.678;9.158;2023-06-22T15:43:24;31.30;99.90
13433;DHT22;6789;47.678;9.158;2023-06-22T15:48:30;31.10;99.90
13433;DHT22;6789;47.678;9.158;2023-06-22T15:53:48;31.00;99.90
13433;DHT22;6789;47.678;9.158;2023-06-22T15:58:42;31.10;99.90
13433;DHT22;6789;47.678;9.158;2023-06-22T16:04:19;31.10;99.90
13433;DHT22;6789;47.678;9.158;2023-06-22T16:09:34;31.30;99.90
13433;DHT22;6789;47.678;9.158;2023-06-22T16:14:51;31.00;99.90
13433;DHT22;6789;47.678;9.158;2023-06-22T16:19:42;30.90;99.90
13433;DHT22;6789;47.678;9.158;2023-06-22T16:24:34;30.40;99.90
13433;DHT22;6789;47.678;9.158;2023-06-22T16:29:59;29.90;99.90
13433;DHT22;6789;47.678;9.158;2023-06-22T16:35:50;29.40;99.90
13433;DHT22;6789;47.678;9.158;2023-06-22T16:40:56;29.00;99.90
13433;DHT22;6789;47.678;9.158;2023-06-22T16:45:49;28.70;99.90
13433;DHT22;6789;47.678;9.158;2023-06-22T16:50:56;28.40;99.90
13433;DHT22;6789;47.678;9.158;2023-06-22T16:55:50;28.30;99.90
13433;DHT22;6789;47.678;9.158;2023-06-22T17:00:45;28.30;99.90
13433;DHT22;6789;47.678;9.158;2023-06-22T17:05:44;28.10;99.90
13433;DHT22;6789;47.678;9.158;2023-06-22T17:11:04;27.90;99.90
13433;DHT22;6789;47.678;9.158;2023-06-22T17:16:16;27.40;99.90
13433;DHT22;6789;47.678;9.158;2023-06-22T17:21:34;26.70;99.90
13433;DHT22;6789;47.678;9.158;2023-06-22T17:26:28;25.90;99.90
13433;DHT22;6789;47.678;9.158;2023-06-22T17:31:38;25.20;99.90
13433;DHT22;6789;47.678;9.158;2023-06-22T17:36:59;24.70;99.90
13433;DHT22;6789;47.678;9.158;2023-06-22T17:41:54;24.60;99.90
13433;DHT22;6789;47.678;9.158;2023-06-22T17:47:49;24.10;99.90
13433;DHT22;6789;47.678;9.158;2023-06-22T18:00:47;23.70;99.90
13433;DHT22;6789;47.678;9.158;2023-06-22T18:06:44;23.70;99.90
13433;DHT22;6789;47.678;9.158;2023-06-22T18:12:05;23.70;99.90
13433;DHT22;6789;47.678;9.158;2023-06-22T18:17:41;23.70;99.90
13433;DHT22;6789;47.678;9.158;2023-06-22T18:48:04;23.10;99.90
13433;DHT22;6789;47.678;9.158;2023-06-22T18:53:32;23.00;99.90
13433;DHT22;6789;47.678;9.158;2023-06-22T18:58:24;22.70;99.90
13433;DHT22;6789;47.678;9.158;2023-06-22T19:03:35;22.70;99.90
13433;DHT22;6789;47.678;9.158;2023-06-22T19:09:16;22.30;99.90
13433;DHT22;6789;47.678;9.158;2023-06-22T19:14:23;22.20;99.90
13433;DHT22;6789;47.678;9.158;2023-06-22T19:19:36;22.20;99.90
13433;DHT22;6789;47.678;9.158;2023-06-22T19:24:47;22.20;99.90
13433;DHT22;6789;47.678;9.158;2023-06-22T19:29:41;22.20;99.90
13433;DHT22;6789;47.678;9.158;2023-06-22T19:34:48;22.00;99.90
13433;DHT22;6789;47.678;9.158;2023-06-22T19:39:40;21.90;99.90
13433;DHT22;6789;47.678;9.158;2023-06-22T19:50:38;21.30;99.90
13433;DHT22;6789;47.678;9.158;2023-06-22T19:55:50;21.30;99.90
13433;DHT22;6789;47.678;9.158;2023-06-22T20:02:14;21.20;99.90
13433;DHT22;6789;47.678;9.158;2023-06-22T20:07:20;21.10;99.90
13433;DHT22;6789;47.678;9.158;2023-06-22T20:12:26;21.00;99.90
13433;DHT22;6789;47.678;9.158;2023-06-22T20:17:43;20.90;99.90
13433;DHT22;6789;47.678;9.158;2023-06-22T20:23:08;20.90;99.90
13433;DHT22;6789;47.678;9.158;2023-06-22T20:28:11;20.80;99.90
13433;DHT22;6789;47.678;9.158;2023-06-22T20:33:15;20.60;99.90
13433;DHT22;6789;47.678;9.158;2023-06-22T20:38:46;20.70;99.90
13433;DHT22;6789;47.678;9.158;2023-06-22T20:43:38;20.70;99.90
13433;DHT22;6789;47.678;9.158;2023-06-22T20:48:30;20.80;99.90
13433;DHT22;6789;47.678;9.158;2023-06-22T20:53:29;20.70;99.90
13433;DHT22;6789;47.678;9.158;2023-06-22T20:58:23;20.60;99.90
13433;DHT22;6789;47.678;9.158;2023-06-22T21:03:14;20.60;99.90
13433;DHT22;6789;47.678;9.158;2023-06-22T21:08:14;20.70;99.90
13433;DHT22;6789;47.678;9.158;2023-06-22T21:13:27;20.70;99.90
13433;DHT22;6789;47.678;9.158;2023-06-22T21:18:48;20.70;99.90
13433;DHT22;6789;47.678;9.158;2023-06-22T21:23:56;20.60;99.90
13433;DHT22;6789;47.678;9.158;2023-06-22T21:28:48;20.60;99.90
13433;DHT22;6789;47.678;9.158;2023-06-22T21:33:40;20.60;99.90
13433;DHT22;6789;47.678;9.158;2023-06-22T21:38:32;20.50;99.90
13433;DHT22;6789;47.678;9.158;2023-06-22T21:43:48;20.40;99.90
13433;DHT22;6789;47.678;9.158;2023-06-22T21:49:08;20.40;99.90
13433;DHT22;6789;47.678;9.158;2023-06-22T21:54:17;20.20;99.90
13433;DHT22;6789;47.678;9.158;2023-06-22T21:59:09;20.10;99.90
13433;DHT22;6789;47.678;9.158;2023-06-22T22:04:01;20.10;99.90
13433;DHT22;6789;47.678;9.158;2023-06-22T22:09:18;20.00;99.90
13433;DHT22;6789;47.678;9.158;2023-06-22T22:14:35;19.80;99.90
13433;DHT22;6789;47.678;9.158;2023-06-22T22:19:27;19.70;99.90
13433;DHT22;6789;47.678;9.158;2023-06-22T22:24:19;19.70;99.90
13433;DHT22;6789;47.678;9.158;2023-06-22T22:29:10;19.70;99.90
13433;DHT22;6789;47.678;9.158;2023-06-22T22:34:07;19.70;99.90
13433;DHT22;6789;47.678;9.158;2023-06-22T22:39:02;19.70;99.90
13433;DHT22;6789;47.678;9.158;2023-06-22T22:43:56;19.60;99.90
13433;DHT22;6789;47.678;9.158;2023-06-22T22:48:48;19.70;99.90
13433;DHT22;6789;47.678;9.158;2023-06-22T22:53:41;19.60;99.90
13433;DHT22;6789;47.678;9.158;2023-06-22T22:58:33;19.50;99.90
13433;DHT22;6789;47.678;9.158;2023-06-22T23:03:25;19.50;99.90
13433;DHT22;6789;47.678;9.158;2023-06-22T23:08:17;19.50;99.90
13433;DHT22;6789;47.678;9.158;2023-06-22T23:13:23;19.50;99.90
13433;DHT22;6789;47.678;9.158;2023-06-22T23:18:15;19.40;99.90
13433;DHT22;6789;47.678;9.158;2023-06-22T23:23:21;19.30;99.90
13433;DHT22;6789;47.678;9.158;2023-06-22T23:28:12;19.20;99.90
13433;DHT22;6789;47.678;9.158;2023-06-22T23:33:10;19.20;99.90
13433;DHT22;6789;47.678;9.158;2023-06-22T23:38:16;19.10;99.90
13433;DHT22;6789;47.678;9.158;2023-06-22T23:43:08;19.20;99.90
13433;DHT22;6789;47.678;9.158;2023-06-22T23:48:00;19.20;99.90
13433;DHT22;6789;47.678;9.158;2023-06-22T23:52:51;19.20;99.90
13433;DHT22;6789;47.678;9.158;2023-06-22T23:57:44;19.30;99.90
